Time;durP1;ratioP1;P1;durP2;ratioP2;P2;SDS_P1;SDS_P2;PMS_P1;PMS_P2;Temp;Humidity;BMP_temperature;BMP_pressure;BME280_temperature;BME280_humidity;BME280_pressure;Samples;Min_cycle;Max_cycle;Signal;HPM_P1;HPM_P2
2022/01/03 00:00:22;;;;;;;4.13;2.20;;;;;;;;;;5069943;28;20206;-68
2022/01/03 00:02:50;;;;;;;10.43;2.07;;;;;;;;;;5072502;28;20671;-67
2022/01/03 00:05:17;;;;;;;2.43;1.80;;;;;;;;;;5063380;28;20216;-67
2022/01/03 00:07:46;;;;;;;11.87;3.33;;;;;;;;;;5064938;28;20239;-68
2022/01/03 00:10:15;;;;;;;1.33;0.80;;;;;;;;;;5066289;28;20260;-68
2022/01/03 00:12:43;;;;;;;8.00;1.83;;;;;;;;;;5066766;28;20191;-68
2022/01/03 00:15:13;;;;;;;3.20;1.27;;;;;;;;;;5061003;28;20213;-67
2022/01/03 00:17:41;;;;;;;6.70;2.43;;;;;;;;;;5063628;28;20279;-68
2022/01/03 00:20:10;;;;;;;4.07;2.70;;;;;;;;;;5068691;28;20194;-66
2022/01/03 00:22:38;;;;;;;16.40;2.03;;;;;;;;;;5071017;28;20227;-68
2022/01/03 00:25:07;;;;;;;16.47;1.90;;;;;;;;;;5080286;28;20205;-71
2022/01/03 00:27:37;;;;;;;5.50;1.40;;;;;;;;;;5066772;28;20205;-66
2022/01/03 00:30:04;;;;;;;3.83;0.93;;;;;;;;;;5070808;28;20574;-67
2022/01/03 00:32:33;;;;;;;0.20;0.20;;;;;;;;;;5070361;28;20202;-68
2022/01/03 00:35:02;;;;;;;3.27;1.53;;;;;;;;;;5061775;28;20207;-66
2022/01/03 00:37:29;;;;;;;2.63;0.90;;;;;;;;;;5069135;28;20198;-67
2022/01/03 00:39:57;;;;;;;8.30;1.63;;;;;;;;;;5067292;28;20201;-68
2022/01/03 00:42:24;;;;;;;6.30;0.83;;;;;;;;;;5063886;28;20234;-67
2022/01/03 00:44:53;;;;;;;0.40;0.40;;;;;;;;;;5066347;28;20298;-68
2022/01/03 00:47:20;;;;;;;1.60;1.00;;;;;;;;;;5069414;28;20198;-67
2022/01/03 00:49:48;;;;;;;6.07;1.03;;;;;;;;;;5067464;28;20656;-68
2022/01/03 00:52:17;;;;;;;1.03;0.40;;;;;;;;;;5067626;28;20208;-66
2022/01/03 00:54:44;;;;;;;7.10;1.30;;;;;;;;;;5065949;28;20213;-68
2022/01/03 00:57:19;;;;;;;19.13;1.37;;;;;;;;;;5066831;28;20199;-68
2022/01/03 00:59:48;;;;;;;11.23;1.17;;;;;;;;;;5066972;28;20269;-68
2022/01/03 01:02:16;;;;;;;1.03;0.83;;;;;;;;;;5066046;28;20635;-66
2022/01/03 01:04:45;;;;;;;5.30;1.20;;;;;;;;;;5066430;28;20679;-67
2022/01/03 01:07:13;;;;;;;6.90;1.90;;;;;;;;;;5065391;28;20251;-68
2022/01/03 01:09:42;;;;;;;10.30;2.10;;;;;;;;;;5067228;28;20562;-68
2022/01/03 01:12:13;;;;;;;2.73;0.93;;;;;;;;;;5065970;28;20296;-67
2022/01/03 01:14:40;;;;;;;0.67;0.57;;;;;;;;;;5065588;28;20206;-68
2022/01/03 01:17:08;;;;;;;4.23;1.40;;;;;;;;;;5070078;28;20572;-68
2022/01/03 01:19:35;;;;;;;0.40;0.37;;;;;;;;;;5065021;28;20209;-69
2022/01/03 07:33:06;;;;;;;5.43;0.20;;;;;;;;;;5123718;27;20715;-69
2022/01/03 07:35:33;;;;;;;5.90;0.53;;;;;;;;;;5115369;28;20715;-69
2022/01/03 07:38:01;;;;;;;0.23;0.23;;;;;;;;;;5107692;28;20579;-68
2022/01/03 07:40:29;;;;;;;10.70;2.00;;;;;;;;;;5109272;28;20198;-69
2022/01/03 07:42:56;;;;;;;1.87;0.73;;;;;;;;;;5110254;28;20233;-70
2022/01/03 07:45:24;;;;;;;0.00;0.00;;;;;;;;;;5109031;28;20209;-70
2022/01/03 07:47:51;;;;;;;0.33;0.33;;;;;;;;;;5116399;28;20584;-70
2022/01/03 07:50:21;;;;;;;6.20;0.67;;;;;;;;;;5112003;28;20205;-70
2022/01/03 07:52:48;;;;;;;0.20;0.10;;;;;;;;;;5105926;28;20208;-70
2022/01/03 07:55:16;;;;;;;0.00;0.00;;;;;;;;;;5118071;27;20212;-68
2022/01/03 07:57:44;;;;;;;0.10;0.10;;;;;;;;;;5107290;28;20288;-70
2022/01/03 08:00:13;;;;;;;1.77;0.53;;;;;;;;;;5109199;28;20215;-68
2022/01/03 08:02:41;;;;;;;0.60;0.60;;;;;;;;;;5107553;28;20713;-69
2022/01/03 08:05:09;;;;;;;8.80;1.07;;;;;;;;;;5118645;28;20684;-68
2022/01/03 08:07:37;;;;;;;0.20;0.20;;;;;;;;;;5107543;28;20201;-70
2022/01/03 08:10:06;;;;;;;2.20;1.43;;;;;;;;;;5107527;28;20198;-70
2022/01/03 08:12:33;;;;;;;0.73;0.53;;;;;;;;;;5109345;28;20194;-69
2022/01/03 08:15:01;;;;;;;2.13;0.37;;;;;;;;;;5108556;28;20201;-68
2022/01/03 08:17:28;;;;;;;16.50;2.30;;;;;;;;;;5102662;28;20224;-68
2022/01/03 08:19:56;;;;;;;0.20;0.00;;;;;;;;;;5106894;28;20198;-68
2022/01/03 08:22:23;;;;;;;0.50;0.50;;;;;;;;;;5105435;27;20240;-69
2022/01/03 08:24:52;;;;;;;0.93;0.40;;;;;;;;;;5105095;28;20584;-69
2022/01/03 08:27:19;;;;;;;1.23;0.60;;;;;;;;;;5113338;28;20572;-67
2022/01/03 08:29:47;;;;;;;0.00;0.00;;;;;;;;;;5109018;28;20201;-70
2022/01/03 08:32:14;;;;;;;1.40;1.33;;;;;;;;;;5108272;28;20217;-69
2022/01/03 08:34:42;;;;;;;1.20;1.07;;;;;;;;;;5103927;28;20213;-71
2022/01/03 08:37:09;;;;;;;2.07;0.20;;;;;;;;;;5106697;28;20206;-70
2022/01/03 08:39:37;;;;;;;0.40;0.40;;;;;;;;;;5102291;28;20689;-71
2022/01/03 08:42:06;;;;;;;0.20;0.20;;;;;;;;;;5087906;28;20224;-69
2022/01/03 08:44:33;;;;;;;0.40;0.10;;;;;;;;;;5088630;28;20195;-68
2022/01/03 08:47:01;;;;;;;6.23;3.60;;;;;;;;;;5093541;28;20290;-70
2022/01/03 08:49:28;;;;;;;0.47;0.47;;;;;;;;;;5090974;28;20206;-70
2022/01/03 08:51:56;;;;;;;0.50;0.50;;;;;;;;;;5103239;28;20647;-70
2022/01/03 08:54:23;;;;;;;0.70;0.40;;;;;;;;;;5087951;28;20605;-69
2022/01/03 08:56:50;;;;;;;1.10;0.53;;;;;;;;;;5086226;28;20212;-69
2022/01/03 08:59:19;;;;;;;1.57;0.27;;;;;;;;;;5088323;28;20211;-69
2022/01/03 09:01:47;;;;;;;0.00;0.00;;;;;;;;;;5090386;28;20218;-71
2022/01/03 09:04:14;;;;;;;1.50;0.60;;;;;;;;;;5088130;28;20202;-68
2022/01/03 09:06:42;;;;;;;1.70;0.30;;;;;;;;;;5088807;28;20206;-71
2022/01/03 09:09:09;;;;;;;9.53;1.30;;;;;;;;;;5091335;28;20209;-70
2022/01/03 09:11:37;;;;;;;1.80;0.63;;;;;;;;;;5087484;28;20281;-71
2022/01/03 09:14:04;;;;;;;0.30;0.30;;;;;;;;;;5088734;28;20202;-70
2022/01/03 09:16:33;;;;;;;0.33;0.17;;;;;;;;;;5087569;28;20245;-69
2022/01/03 09:19:00;;;;;;;3.10;0.33;;;;;;;;;;5085725;28;20198;-71
2022/01/03 09:21:28;;;;;;;6.67;1.80;;;;;;;;;;5090254;28;20204;-72
2022/01/03 09:24:17;;;;;;;0.30;0.30;;;;;;;;;;5091051;28;20794;-67
2022/01/03 09:29:28;;;;;;;0.43;0.43;;;;;;;;;;5088743;28;20213;-72
2022/01/03 09:31:57;;;;;;;0.10;0.10;;;;;;;;;;5086592;28;20233;-70
2022/01/03 09:34:24;;;;;;;7.07;1.03;;;;;;;;;;5088282;28;20206;-71
2022/01/03 09:36:52;;;;;;;3.37;0.70;;;;;;;;;;5085260;28;20213;-70
2022/01/03 09:39:19;;;;;;;0.00;0.00;;;;;;;;;;5084831;28;20563;-70
2022/01/03 09:41:51;;;;;;;1.47;0.80;;;;;;;;;;5083938;28;20226;-72
2022/01/03 09:44:18;;;;;;;0.10;0.10;;;;;;;;;;5085365;28;20198;-70
2022/01/03 09:46:46;;;;;;;0.73;0.73;;;;;;;;;;5087120;28;20206;-73
2022/01/03 09:49:17;;;;;;;0.37;0.37;;;;;;;;;;5085355;28;20582;-70
2022/01/03 09:51:45;;;;;;;2.87;1.40;;;;;;;;;;5086710;28;20211;-71
2022/01/03 09:54:15;;;;;;;0.73;0.50;;;;;;;;;;5084409;28;20756;-69
2022/01/03 09:56:43;;;;;;;0.93;0.93;;;;;;;;;;5084919;28;20199;-72
2022/01/03 09:59:11;;;;;;;0.60;0.60;;;;;;;;;;5085733;28;20320;-69
2022/01/03 10:01:40;;;;;;;0.83;0.40;;;;;;;;;;5083740;28;20590;-68
2022/01/03 10:04:09;;;;;;;0.67;0.27;;;;;;;;;;5085885;28;20207;-68
2022/01/03 10:06:38;;;;;;;5.80;2.03;;;;;;;;;;5085259;28;20206;-70
2022/01/03 10:09:06;;;;;;;3.33;1.70;;;;;;;;;;5084152;28;20201;-70
2022/01/03 10:11:33;;;;;;;0.73;0.37;;;;;;;;;;5085044;28;20206;-70
2022/01/03 10:14:01;;;;;;;2.90;1.03;;;;;;;;;;5085392;28;20667;-71
2022/01/03 10:16:30;;;;;;;1.97;0.27;;;;;;;;;;5085066;28;20205;-70
2022/01/03 10:18:57;;;;;;;2.97;1.00;;;;;;;;;;5082331;28;20198;-71
2022/01/03 10:21:35;;;;;;;1.83;1.03;;;;;;;;;;5082978;28;20205;-71
2022/01/03 10:24:05;;;;;;;1.10;0.60;;;;;;;;;;5085029;28;20205;-71
2022/01/03 10:26:32;;;;;;;4.60;1.80;;;;;;;;;;5082988;28;20202;-72
2022/01/03 10:29:13;;;;;;;0.17;0.17;;;;;;;;;;5085085;28;20209;-72
2022/01/03 10:31:41;;;;;;;1.23;0.77;;;;;;;;;;5083756;28;20229;-71
2022/01/03 10:34:10;;;;;;;2.17;0.87;;;;;;;;;;5080474;28;20206;-73
2022/01/03 10:36:38;;;;;;;0.73;0.70;;;;;;;;;;5080720;28;20205;-77
2022/01/03 10:39:14;;;;;;;0.30;0.27;;;;;;;;;;5082728;28;20202;-75
2022/01/03 10:41:43;;;;;;;0.30;0.30;;;;;;;;;;5084800;28;20193;-75
2022/01/03 10:44:11;;;;;;;3.30;1.33;;;;;;;;;;5084302;28;20226;-74
2022/01/03 10:46:40;;;;;;;0.80;0.77;;;;;;;;;;5084262;28;20232;-76
2022/01/03 10:49:08;;;;;;;3.87;0.57;;;;;;;;;;5084756;28;20226;-74
2022/01/03 10:51:36;;;;;;;1.57;0.50;;;;;;;;;;5084608;28;20206;-76
2022/01/03 10:54:08;;;;;;;14.23;2.43;;;;;;;;;;5089532;28;20198;-69
2022/01/03 10:56:38;;;;;;;1.40;0.10;;;;;;;;;;5101767;28;20190;-71
2022/01/03 10:59:21;;;;;;;6.77;0.87;;;;;;;;;;5082601;28;20202;-68
2022/01/03 11:01:49;;;;;;;0.10;0.10;;;;;;;;;;5082376;28;20671;-67
2022/01/03 11:04:27;;;;;;;1.70;1.10;;;;;;;;;;5084581;28;20194;-68
2022/01/03 11:13:07;;;;;;;0.00;0.00;;;;;;;;;;5083231;28;20212;-68
2022/01/03 11:15:34;;;;;;;0.83;0.50;;;;;;;;;;5081855;28;20212;-69
2022/01/03 11:18:12;;;;;;;0.00;0.00;;;;;;;;;;5079047;28;20206;-69
2022/01/03 11:20:40;;;;;;;4.27;0.73;;;;;;;;;;5083608;28;20203;-69
2022/01/03 11:23:07;;;;;;;0.53;0.37;;;;;;;;;;5084069;28;20230;-70
2022/01/03 11:25:35;;;;;;;0.00;0.00;;;;;;;;;;5081971;28;20202;-68
2022/01/03 11:28:03;;;;;;;0.20;0.20;;;;;;;;;;5081995;28;20206;-67
2022/01/03 11:30:32;;;;;;;11.63;1.07;;;;;;;;;;5084441;28;20209;-69
2022/01/03 11:33:01;;;;;;;0.37;0.37;;;;;;;;;;5082593;28;20290;-69
2022/01/03 11:35:28;;;;;;;0.40;0.30;;;;;;;;;;5081901;28;20675;-69
2022/01/03 11:37:58;;;;;;;0.07;0.03;;;;;;;;;;5080617;28;20206;-71
2022/01/03 11:40:26;;;;;;;3.80;1.67;;;;;;;;;;5081806;28;20202;-69
2022/01/03 11:42:54;;;;;;;0.00;0.00;;;;;;;;;;5084436;28;20313;-68
2022/01/03 11:45:22;;;;;;;6.60;1.23;;;;;;;;;;5081518;28;20205;-69
2022/01/03 11:47:51;;;;;;;2.87;0.77;;;;;;;;;;5077745;28;20206;-68
2022/01/03 11:50:18;;;;;;;0.00;0.00;;;;;;;;;;5081275;28;20202;-70
2022/01/03 11:52:46;;;;;;;0.03;0.03;;;;;;;;;;5081612;28;20264;-73
2022/01/03 11:55:14;;;;;;;4.60;0.20;;;;;;;;;;5081282;28;20194;-75
2022/01/03 11:57:59;;;;;;;3.83;0.47;;;;;;;;;;5083899;28;20204;-74
2022/01/03 12:06:04;;;;;;;0.43;0.20;;;;;;;;;;5083481;28;20220;-74
2022/01/03 12:08:33;;;;;;;0.00;0.00;;;;;;;;;;5082497;28;20206;-72
2022/01/03 12:11:02;;;;;;;0.00;0.00;;;;;;;;;;5086198;28;20210;-74
2022/01/03 12:13:48;;;;;;;0.60;0.23;;;;;;;;;;5086513;28;20209;-74
2022/01/03 12:16:16;;;;;;;0.23;0.23;;;;;;;;;;5080917;28;20773;-74
2022/01/03 12:18:59;;;;;;;3.73;0.30;;;;;;;;;;5085403;28;20213;-69
2022/01/03 12:21:44;;;;;;;0.37;0.37;;;;;;;;;;5079622;28;20260;-76
2022/01/03 12:24:26;;;;;;;2.07;0.20;;;;;;;;;;5084855;28;20642;-69
2022/01/03 12:27:09;;;;;;;0.77;0.60;;;;;;;;;;5081246;28;20582;-69
2022/01/03 12:30:05;;;;;;;0.47;0.23;;;;;;;;;;5082347;28;20209;-69
2022/01/03 12:32:34;;;;;;;0.00;0.00;;;;;;;;;;5083613;28;20260;-70
2022/01/03 12:35:16;;;;;;;0.93;0.10;;;;;;;;;;5082308;28;20307;-69
2022/01/03 12:37:47;;;;;;;0.20;0.20;;;;;;;;;;5081790;28;20209;-70
2022/01/03 12:40:15;;;;;;;0.00;0.00;;;;;;;;;;5081889;28;20313;-69
2022/01/03 12:42:56;;;;;;;0.27;0.10;;;;;;;;;;5086666;28;20222;-69
2022/01/03 12:45:43;;;;;;;0.23;0.23;;;;;;;;;;5088138;28;20676;-69
2022/01/03 12:48:19;;;;;;;0.00;0.00;;;;;;;;;;5083728;28;20620;-70
2022/01/03 12:50:47;;;;;;;1.13;0.47;;;;;;;;;;5085154;28;20202;-70
2022/01/03 12:53:30;;;;;;;0.00;0.00;;;;;;;;;;5083977;28;20198;-70
2022/01/03 12:56:03;;;;;;;0.00;0.00;;;;;;;;;;5085591;28;20206;-69
2022/01/03 12:58:44;;;;;;;0.13;0.13;;;;;;;;;;5086480;28;20229;-71
2022/01/03 13:01:31;;;;;;;0.00;0.00;;;;;;;;;;5086389;28;20209;-69
2022/01/03 13:04:00;;;;;;;0.70;0.33;;;;;;;;;;5088080;28;20234;-70
2022/01/03 13:06:28;;;;;;;0.00;0.00;;;;;;;;;;5083895;28;20664;-69
2022/01/03 13:09:03;;;;;;;0.57;0.47;;;;;;;;;;5077724;28;20202;-69
2022/01/03 13:11:33;;;;;;;0.60;0.33;;;;;;;;;;5080044;28;20193;-69
2022/01/03 13:14:02;;;;;;;3.80;0.73;;;;;;;;;;5087551;28;20195;-71
2022/01/03 13:16:31;;;;;;;2.00;0.10;;;;;;;;;;5084913;28;20206;-69
2022/01/03 13:18:58;;;;;;;0.00;0.00;;;;;;;;;;5085343;28;22023;-69
2022/01/03 13:21:27;;;;;;;0.60;0.30;;;;;;;;;;5084994;28;20210;-70
2022/01/03 13:23:54;;;;;;;0.00;0.00;;;;;;;;;;5085701;28;20570;-70
2022/01/03 13:26:22;;;;;;;0.10;0.10;;;;;;;;;;5083939;28;20194;-70
2022/01/03 13:28:52;;;;;;;12.33;1.17;;;;;;;;;;5085340;28;20206;-69
2022/01/03 13:31:20;;;;;;;0.77;0.30;;;;;;;;;;5084517;28;20234;-69
2022/01/03 13:33:54;;;;;;;0.00;0.00;;;;;;;;;;5085485;28;20210;-69
2022/01/03 13:36:22;;;;;;;1.90;0.20;;;;;;;;;;5081623;28;20189;-71
2022/01/03 13:38:49;;;;;;;0.20;0.20;;;;;;;;;;5083811;28;20216;-71
2022/01/03 13:41:18;;;;;;;0.93;0.70;;;;;;;;;;5085825;28;20210;-70
2022/01/03 13:43:50;;;;;;;0.00;0.00;;;;;;;;;;5086393;28;20225;-71
2022/01/03 13:49:13;;;;;;;2.63;0.20;;;;;;;;;;5086659;28;20299;-71
2022/01/03 13:51:45;;;;;;;7.47;0.57;;;;;;;;;;5084155;28;20202;-70
2022/01/03 13:54:22;;;;;;;1.17;0.33;;;;;;;;;;5087440;28;20194;-69
2022/01/03 13:56:50;;;;;;;0.00;0.00;;;;;;;;;;5084411;28;20251;-69
2022/01/03 13:59:18;;;;;;;0.00;0.00;;;;;;;;;;5086006;28;20682;-69
2022/01/03 14:01:47;;;;;;;0.03;0.03;;;;;;;;;;5083627;28;20202;-69
2022/01/03 14:04:15;;;;;;;0.10;0.10;;;;;;;;;;5082955;28;20335;-69
2022/01/03 14:06:45;;;;;;;0.20;0.20;;;;;;;;;;5086515;28;20652;-71
2022/01/03 14:09:16;;;;;;;0.47;0.47;;;;;;;;;;5084686;28;20212;-70
2022/01/03 14:11:44;;;;;;;0.00;0.00;;;;;;;;;;5083389;28;20195;-71
2022/01/03 14:14:13;;;;;;;0.00;0.00;;;;;;;;;;5086270;28;20222;-71
2022/01/03 14:16:55;;;;;;;0.00;0.00;;;;;;;;;;5084482;28;20205;-69
2022/01/03 14:19:22;;;;;;;0.30;0.30;;;;;;;;;;5084477;28;20204;-69
2022/01/03 14:21:51;;;;;;;0.00;0.00;;;;;;;;;;5084348;28;20213;-70
2022/01/03 14:24:20;;;;;;;0.00;0.00;;;;;;;;;;5086571;28;20248;-69
2022/01/03 14:26:56;;;;;;;0.00;0.00;;;;;;;;;;5083410;28;20202;-70
2022/01/03 14:29:23;;;;;;;0.00;0.00;;;;;;;;;;5084453;28;20205;-69
2022/01/03 14:31:53;;;;;;;0.20;0.20;;;;;;;;;;5085971;28;20226;-70
2022/01/03 14:34:23;;;;;;;0.20;0.20;;;;;;;;;;5084557;28;20198;-72
2022/01/03 14:36:51;;;;;;;0.00;0.00;;;;;;;;;;5084017;28;20214;-68
2022/01/03 14:39:18;;;;;;;0.30;0.30;;;;;;;;;;5084634;28;20213;-68
2022/01/03 14:41:56;;;;;;;0.00;0.00;;;;;;;;;;5086649;28;20225;-72
2022/01/03 14:44:26;;;;;;;0.00;0.00;;;;;;;;;;5085229;28;20226;-70
2022/01/03 14:47:03;;;;;;;0.10;0.00;;;;;;;;;;5083954;28;20259;-69
2022/01/03 14:49:32;;;;;;;0.83;0.17;;;;;;;;;;5084732;28;20210;-71
2022/01/03 14:51:59;;;;;;;0.60;0.20;;;;;;;;;;5078617;28;20200;-68
2022/01/03 14:54:32;;;;;;;0.10;0.10;;;;;;;;;;5081167;28;20213;-70
2022/01/03 14:57:15;;;;;;;0.53;0.30;;;;;;;;;;5066954;28;20210;-70
2022/01/03 14:59:42;;;;;;;0.00;0.00;;;;;;;;;;5079838;28;20224;-70
2022/01/03 15:02:10;;;;;;;0.73;0.30;;;;;;;;;;5079930;28;20296;-70
2022/01/03 15:04:38;;;;;;;0.10;0.10;;;;;;;;;;5078202;28;20228;-73
2022/01/03 15:07:09;;;;;;;0.00;0.00;;;;;;;;;;5076333;28;20198;-71
2022/01/03 15:09:37;;;;;;;0.00;0.00;;;;;;;;;;5081306;28;20556;-70
2022/01/03 15:12:04;;;;;;;0.00;0.00;;;;;;;;;;5084764;28;20560;-69
2022/01/03 15:14:32;;;;;;;41.67;2.13;;;;;;;;;;5086559;28;20742;-71
2022/01/03 15:16:59;;;;;;;0.20;0.20;;;;;;;;;;5080681;28;20214;-71
2022/01/03 15:19:27;;;;;;;0.00;0.00;;;;;;;;;;5080185;28;20561;-71
2022/01/03 15:21:56;;;;;;;0.00;0.00;;;;;;;;;;5078650;28;20194;-72
2022/01/03 15:24:23;;;;;;;0.00;0.00;;;;;;;;;;5081639;28;20221;-70
2022/01/03 15:26:51;;;;;;;0.00;0.00;;;;;;;;;;5089621;28;20202;-70
2022/01/03 15:29:18;;;;;;;0.10;0.10;;;;;;;;;;5101285;28;20190;-68
2022/01/03 15:31:46;;;;;;;0.00;0.00;;;;;;;;;;5084668;28;20575;-72
2022/01/03 15:34:13;;;;;;;0.00;0.00;;;;;;;;;;5086702;28;20213;-70
2022/01/03 15:36:40;;;;;;;0.00;0.00;;;;;;;;;;5086338;28;20202;-71
2022/01/03 15:39:09;;;;;;;0.00;0.00;;;;;;;;;;5091195;28;20202;-72
2022/01/03 15:41:37;;;;;;;0.00;0.00;;;;;;;;;;5088133;28;20285;-71
2022/01/03 15:44:05;;;;;;;3.60;1.27;;;;;;;;;;5090131;28;20233;-71
2022/01/03 15:46:33;;;;;;;0.00;0.00;;;;;;;;;;5102534;28;20205;-71
2022/01/03 15:49:02;;;;;;;0.00;0.00;;;;;;;;;;5109689;28;20213;-68
2022/01/03 15:51:30;;;;;;;0.00;0.00;;;;;;;;;;5106695;28;20212;-69
2022/01/03 15:53:58;;;;;;;0.20;0.20;;;;;;;;;;5103786;28;20197;-68
2022/01/03 15:56:27;;;;;;;0.00;0.00;;;;;;;;;;5094412;28;20648;-67
2022/01/03 15:58:54;;;;;;;0.00;0.00;;;;;;;;;;5094317;28;20213;-67
2022/01/03 16:01:22;;;;;;;0.97;0.33;;;;;;;;;;5093400;28;20218;-65
2022/01/03 16:03:49;;;;;;;0.00;0.00;;;;;;;;;;5094648;28;20218;-69
2022/01/03 16:06:16;;;;;;;0.10;0.10;;;;;;;;;;5090152;28;20198;-68
2022/01/03 16:08:44;;;;;;;1.70;0.53;;;;;;;;;;5089494;28;20197;-68
2022/01/03 16:11:11;;;;;;;0.47;0.47;;;;;;;;;;5088836;28;20201;-67
2022/01/03 16:13:40;;;;;;;0.50;0.10;;;;;;;;;;5090745;28;20683;-68
2022/01/03 16:16:07;;;;;;;0.10;0.10;;;;;;;;;;5088902;28;20199;-67
2022/01/03 16:18:35;;;;;;;0.00;0.00;;;;;;;;;;5089302;28;20198;-68
2022/01/03 16:21:03;;;;;;;0.00;0.00;;;;;;;;;;5091012;28;20251;-67
2022/01/03 16:23:30;;;;;;;0.00;0.00;;;;;;;;;;5090237;28;20211;-67
2022/01/03 16:25:58;;;;;;;0.00;0.00;;;;;;;;;;5087240;28;20790;-68
2022/01/03 16:28:25;;;;;;;0.13;0.13;;;;;;;;;;5089722;28;20198;-70
2022/01/03 16:30:54;;;;;;;0.20;0.20;;;;;;;;;;5087620;28;20293;-69
2022/01/03 16:33:21;;;;;;;0.00;0.00;;;;;;;;;;5089127;28;20206;-69
2022/01/03 16:35:49;;;;;;;0.40;0.40;;;;;;;;;;5088001;28;20770;-72
2022/01/03 16:38:17;;;;;;;0.20;0.20;;;;;;;;;;5090645;28;20205;-70
2022/01/03 16:40:47;;;;;;;0.00;0.00;;;;;;;;;;5089374;28;20331;-70
2022/01/03 16:43:14;;;;;;;0.00;0.00;;;;;;;;;;5088671;28;20580;-66
2022/01/03 16:45:41;;;;;;;0.00;0.00;;;;;;;;;;5087050;28;20695;-69
2022/01/03 16:48:12;;;;;;;0.00;0.00;;;;;;;;;;5088739;28;20663;-70
2022/01/03 16:50:39;;;;;;;0.00;0.00;;;;;;;;;;5089204;28;20731;-70
2022/01/03 16:53:08;;;;;;;0.00;0.00;;;;;;;;;;5089155;28;20195;-69
2022/01/03 16:55:35;;;;;;;0.00;0.00;;;;;;;;;;5088764;28;20206;-71
2022/01/03 16:58:04;;;;;;;0.30;0.30;;;;;;;;;;5088700;28;20202;-70
2022/01/03 17:00:32;;;;;;;0.00;0.00;;;;;;;;;;5087284;28;20195;-70
2022/01/03 17:02:59;;;;;;;0.00;0.00;;;;;;;;;;5088990;28;20198;-71
2022/01/03 17:05:29;;;;;;;0.00;0.00;;;;;;;;;;5086186;28;20232;-70
2022/01/03 17:07:57;;;;;;;0.00;0.00;;;;;;;;;;5094948;28;20212;-71
2022/01/03 17:10:26;;;;;;;0.20;0.10;;;;;;;;;;5090969;28;20612;-69
2022/01/03 17:12:54;;;;;;;0.00;0.00;;;;;;;;;;5099036;28;20202;-68
2022/01/03 17:15:21;;;;;;;0.00;0.00;;;;;;;;;;5098659;28;20671;-71
2022/01/03 17:17:49;;;;;;;0.10;0.10;;;;;;;;;;5094487;28;20197;-71
2022/01/03 17:20:17;;;;;;;2.67;1.70;;;;;;;;;;5092951;28;20202;-71
2022/01/03 17:22:47;;;;;;;0.50;0.50;;;;;;;;;;5096446;28;20288;-70
2022/01/03 17:25:15;;;;;;;0.37;0.37;;;;;;;;;;5099396;28;20227;-70
2022/01/03 17:27:42;;;;;;;0.57;0.57;;;;;;;;;;5101403;28;20230;-69
2022/01/03 17:30:10;;;;;;;0.30;0.30;;;;;;;;;;5093524;28;20204;-69
2022/01/03 17:32:38;;;;;;;0.23;0.23;;;;;;;;;;5098486;28;20221;-70
2022/01/03 17:35:05;;;;;;;16.90;1.73;;;;;;;;;;5102623;28;20194;-71
2022/01/03 17:37:33;;;;;;;9.33;8.63;;;;;;;;;;5077627;28;20541;-70
2022/01/03 17:40:03;;;;;;;2.90;1.50;;;;;;;;;;5091320;28;20198;-71
2022/01/03 17:42:30;;;;;;;0.00;0.00;;;;;;;;;;5091528;28;20198;-69
2022/01/03 17:44:58;;;;;;;0.13;0.13;;;;;;;;;;5091735;28;20238;-70
2022/01/03 17:47:25;;;;;;;0.10;0.10;;;;;;;;;;5089603;28;20276;-70
2022/01/03 17:49:53;;;;;;;0.40;0.33;;;;;;;;;;5087728;28;20560;-70
2022/01/03 17:52:20;;;;;;;0.00;0.00;;;;;;;;;;5087136;28;20202;-71
2022/01/03 17:54:48;;;;;;;0.73;0.60;;;;;;;;;;5088262;28;20202;-71
2022/01/03 17:57:17;;;;;;;0.13;0.13;;;;;;;;;;5087304;28;20796;-71
2022/01/03 17:59:44;;;;;;;0.00;0.00;;;;;;;;;;5088234;28;20908;-71
2022/01/03 18:02:12;;;;;;;0.00;0.00;;;;;;;;;;5085698;28;20597;-71
2022/01/03 18:04:41;;;;;;;0.00;0.00;;;;;;;;;;5093099;28;20252;-71
2022/01/03 18:07:09;;;;;;;0.10;0.10;;;;;;;;;;5094297;28;20273;-68
2022/01/03 18:09:36;;;;;;;0.00;0.00;;;;;;;;;;5093010;28;20198;-71
2022/01/03 18:12:04;;;;;;;0.00;0.00;;;;;;;;;;5088972;28;20195;-71
2022/01/03 18:14:34;;;;;;;0.00;0.00;;;;;;;;;;5103231;28;20199;-70
2022/01/03 18:17:01;;;;;;;0.67;0.67;;;;;;;;;;5089745;28;20209;-70
2022/01/03 18:19:29;;;;;;;0.10;0.10;;;;;;;;;;5091868;28;20214;-71
2022/01/03 18:21:57;;;;;;;0.43;0.27;;;;;;;;;;5093952;28;20205;-71
2022/01/03 18:24:24;;;;;;;0.63;0.63;;;;;;;;;;5105588;28;20221;-71
2022/01/03 18:26:53;;;;;;;0.77;0.77;;;;;;;;;;5095608;28;20206;-72
2022/01/03 18:29:21;;;;;;;0.00;0.00;;;;;;;;;;5086882;28;20322;-72
2022/01/03 18:31:49;;;;;;;0.20;0.20;;;;;;;;;;5093780;28;20233;-71
2022/01/03 18:34:17;;;;;;;6.23;1.13;;;;;;;;;;5102087;28;20201;-72
2022/01/03 18:36:44;;;;;;;0.23;0.23;;;;;;;;;;5099623;28;20201;-72
2022/01/03 18:39:13;;;;;;;2.10;0.50;;;;;;;;;;5086894;28;20221;-71
2022/01/03 18:41:40;;;;;;;0.43;0.33;;;;;;;;;;5087354;28;20198;-71
2022/01/03 18:44:08;;;;;;;0.40;0.40;;;;;;;;;;5089148;28;20651;-72
2022/01/03 18:46:36;;;;;;;0.13;0.13;;;;;;;;;;5089970;28;20662;-70
2022/01/03 18:49:05;;;;;;;0.27;0.27;;;;;;;;;;5085793;28;20201;-71
2022/01/03 18:51:33;;;;;;;0.20;0.20;;;;;;;;;;5098390;28;20627;-69
2022/01/03 18:54:01;;;;;;;0.57;0.40;;;;;;;;;;5094250;28;20225;-70
2022/01/03 18:56:29;;;;;;;3.20;1.43;;;;;;;;;;5088530;28;20216;-70
2022/01/03 18:58:57;;;;;;;0.10;0.10;;;;;;;;;;5090407;28;20202;-71
2022/01/03 19:01:28;;;;;;;0.40;0.40;;;;;;;;;;5092817;28;20224;-71
2022/01/03 19:03:55;;;;;;;0.20;0.20;;;;;;;;;;5087535;28;20671;-67
2022/01/03 19:06:24;;;;;;;1.53;1.43;;;;;;;;;;5115265;28;20741;-71
2022/01/03 19:08:52;;;;;;;0.00;0.00;;;;;;;;;;5109559;28;20220;-69
2022/01/03 19:11:20;;;;;;;2.37;0.23;;;;;;;;;;5102734;28;20288;-69
2022/01/03 19:13:47;;;;;;;10.20;0.83;;;;;;;;;;5084786;28;20812;-69
2022/01/03 19:16:16;;;;;;;1.63;0.70;;;;;;;;;;5089589;28;20194;-68
2022/01/03 19:18:43;;;;;;;0.10;0.10;;;;;;;;;;5098034;28;20240;-71
2022/01/03 19:21:11;;;;;;;0.00;0.00;;;;;;;;;;5093219;28;20216;-71
2022/01/03 19:23:41;;;;;;;0.63;0.63;;;;;;;;;;5088007;28;20209;-69
2022/01/03 19:26:09;;;;;;;0.43;0.43;;;;;;;;;;5090477;28;20262;-71
2022/01/03 19:28:38;;;;;;;0.87;0.87;;;;;;;;;;5090846;28;20194;-69
2022/01/03 19:31:07;;;;;;;0.20;0.20;;;;;;;;;;5085448;28;20222;-69
2022/01/03 19:39:07;;;;;;;0.20;0.20;;;;;;;;;;5092211;28;20254;-71
2022/01/03 19:41:35;;;;;;;0.87;0.63;;;;;;;;;;5089311;28;20286;-70
2022/01/03 19:44:03;;;;;;;0.10;0.10;;;;;;;;;;5085581;28;20207;-68
2022/01/03 19:46:31;;;;;;;0.20;0.00;;;;;;;;;;5090143;28;20748;-70
2022/01/03 19:48:58;;;;;;;0.37;0.20;;;;;;;;;;5089513;28;20202;-71
2022/01/03 19:51:25;;;;;;;0.10;0.10;;;;;;;;;;5090405;28;20198;-70
2022/01/03 19:53:53;;;;;;;0.00;0.00;;;;;;;;;;5093703;28;20206;-69
2022/01/03 19:56:22;;;;;;;0.63;0.53;;;;;;;;;;5092939;28;20206;-69
2022/01/03 19:58:50;;;;;;;0.00;0.00;;;;;;;;;;5088601;28;20237;-69
2022/01/03 20:01:17;;;;;;;0.03;0.03;;;;;;;;;;5082050;28;20651;-68
2022/01/03 20:03:45;;;;;;;2.13;1.40;;;;;;;;;;5099481;28;20198;-69
2022/01/03 20:06:12;;;;;;;0.30;0.30;;;;;;;;;;5089774;28;20230;-72
2022/01/03 20:08:40;;;;;;;0.00;0.00;;;;;;;;;;5090979;28;20198;-70
2022/01/03 20:11:07;;;;;;;0.20;0.20;;;;;;;;;;5081907;28;20209;-70
2022/01/03 20:13:44;;;;;;;0.00;0.00;;;;;;;;;;5089256;28;20288;-70
2022/01/03 20:16:12;;;;;;;0.53;0.53;;;;;;;;;;5096938;28;20199;-70
2022/01/03 20:18:40;;;;;;;0.50;0.50;;;;;;;;;;5095754;28;20217;-70
2022/01/03 20:21:07;;;;;;;1.50;1.03;;;;;;;;;;5092716;28;20202;-70
2022/01/03 20:23:37;;;;;;;0.40;0.23;;;;;;;;;;5090734;28;20682;-69
2022/01/03 20:26:04;;;;;;;0.73;0.73;;;;;;;;;;5087599;28;20574;-69
2022/01/03 20:28:32;;;;;;;0.20;0.20;;;;;;;;;;5090657;28;20206;-69
2022/01/03 20:31:01;;;;;;;2.53;0.47;;;;;;;;;;5101297;28;20195;-70
2022/01/03 20:33:29;;;;;;;1.60;1.50;;;;;;;;;;5101409;28;21064;-69
2022/01/03 20:35:56;;;;;;;0.00;0.00;;;;;;;;;;5088049;28;20197;-69
2022/01/03 20:38:24;;;;;;;1.70;0.77;;;;;;;;;;5089174;28;20198;-70
2022/01/03 20:40:51;;;;;;;0.00;0.00;;;;;;;;;;5094805;28;20667;-69
2022/01/03 20:43:19;;;;;;;0.00;0.00;;;;;;;;;;5090354;28;20280;-70
2022/01/03 20:45:47;;;;;;;1.50;1.03;;;;;;;;;;5092568;28;20229;-69
2022/01/03 20:48:15;;;;;;;0.00;0.00;;;;;;;;;;5094176;28;20198;-70
2022/01/03 20:50:43;;;;;;;1.90;1.80;;;;;;;;;;5091093;28;20217;-70
2022/01/03 20:53:10;;;;;;;0.07;0.07;;;;;;;;;;5092557;28;20204;-70
2022/01/03 20:55:38;;;;;;;0.00;0.00;;;;;;;;;;5086407;28;20537;-69
2022/01/03 20:58:05;;;;;;;0.30;0.30;;;;;;;;;;5094785;28;20194;-69
2022/01/03 21:00:33;;;;;;;1.53;0.13;;;;;;;;;;5094360;28;20693;-69
2022/01/03 21:03:00;;;;;;;0.50;0.50;;;;;;;;;;5092225;28;20224;-69
2022/01/03 21:05:30;;;;;;;0.10;0.03;;;;;;;;;;5105582;28;20226;-70
2022/01/03 21:07:58;;;;;;;0.00;0.00;;;;;;;;;;5092195;28;20202;-69
2022/01/03 21:10:25;;;;;;;0.40;0.40;;;;;;;;;;5094797;28;20202;-69
2022/01/03 21:12:54;;;;;;;0.77;0.53;;;;;;;;;;5109342;28;21169;-69
2022/01/03 21:15:22;;;;;;;0.60;0.20;;;;;;;;;;5104924;28;20673;-70
2022/01/03 21:17:49;;;;;;;1.40;0.57;;;;;;;;;;5095938;28;20194;-69
2022/01/03 21:20:17;;;;;;;0.03;0.03;;;;;;;;;;5089750;28;20222;-69
2022/01/03 21:22:46;;;;;;;0.93;0.83;;;;;;;;;;5092027;28;20198;-70
2022/01/03 21:25:14;;;;;;;0.10;0.10;;;;;;;;;;5095899;28;20711;-69
2022/01/03 21:27:42;;;;;;;0.10;0.10;;;;;;;;;;5093803;28;20219;-70